Time;durP1;ratioP1;P1;durP2;ratioP2;P2;SDS_P1;SDS_P2;PMS_P1;PMS_P2;Temp;Humidity;BMP_temperature;BMP_pressure;BME280_temperature;BME280_humidity;BME280_pressure;Samples;Min_cycle;Max_cycle;Signal;HPM_P1;HPM_P2
2023/07/08 00:00:47;;;;;;;3.30;3.00;;;;;;;25.40;60.48;100982.79;107270;1258;25335;-50
2023/07/08 00:03:17;;;;;;;3.50;2.60;;;;;;;25.39;60.55;100982.48;107312;1251;22533;-50
2023/07/08 00:05:47;;;;;;;2.80;2.60;;;;;;;25.37;60.69;100980.17;107181;1262;22542;-50
2023/07/08 00:08:19;;;;;;;4.00;2.50;;;;;;;25.33;60.72;100978.31;107206;1260;25497;-49
2023/07/08 00:10:47;;;;;;;3.40;3.10;;;;;;;25.30;60.91;100980.92;107241;1266;25362;-49
2023/07/08 00:13:14;;;;;;;2.40;2.20;;;;;;;25.25;61.11;100977.71;106958;1267;25371;-48
2023/07/08 00:15:41;;;;;;;3.10;2.90;;;;;;;25.22;60.93;100984.20;107010;1266;25372;-48
2023/07/08 00:18:11;;;;;;;4.90;2.80;;;;;;;25.18;61.13;100990.38;106845;1266;25484;-49
2023/07/08 00:20:41;;;;;;;3.90;2.70;;;;;;;25.13;61.13;100992.01;106951;1264;25293;-48
2023/07/08 00:23:08;;;;;;;3.80;2.40;;;;;;;25.10;61.35;100997.77;107130;1254;22510;-49
2023/07/08 00:25:35;;;;;;;2.50;2.30;;;;;;;25.08;61.49;100996.34;107196;1256;22520;-48
2023/07/08 00:28:04;;;;;;;2.50;2.30;;;;;;;25.05;61.59;100996.95;107234;1265;25337;-49
2023/07/08 00:30:31;;;;;;;3.00;2.70;;;;;;;25.04;61.80;100997.38;107090;1266;24327;-48
2023/07/08 00:32:58;;;;;;;3.00;2.70;;;;;;;25.02;61.96;100990.91;107228;1260;25290;-49
2023/07/08 00:35:30;;;;;;;2.70;2.50;;;;;;;25.02;62.00;100992.39;107189;1263;25366;-48
2023/07/08 00:38:03;;;;;;;2.70;2.50;;;;;;;25.01;61.92;100986.61;107171;1266;24009;-47
2023/07/08 00:40:31;;;;;;;2.90;2.70;;;;;;;25.00;62.01;100985.56;107259;1263;25414;-48
2023/07/08 00:43:00;;;;;;;2.30;2.10;;;;;;;25.00;62.14;100984.20;107234;1262;22520;-49
2023/07/08 00:45:43;;;;;;;2.90;2.60;;;;;;;24.97;62.22;100981.04;107217;1254;25359;-49
2023/07/08 00:48:30;;;;;;;2.60;2.40;;;;;;;24.95;62.68;100987.05;107004;1266;25456;-49
2023/07/08 00:50:57;;;;;;;2.40;2.20;;;;;;;24.94;62.79;100982.55;107087;1265;22527;-49
2023/07/08 00:53:28;;;;;;;3.70;2.70;;;;;;;24.93;62.84;100984.23;107124;1269;24308;-48
2023/07/08 00:56:02;;;;;;;2.70;2.30;;;;;;;24.93;62.93;100979.10;107100;1266;25344;-48
2023/07/08 00:58:39;;;;;;;2.60;2.40;;;;;;;24.92;62.97;100977.74;107161;1260;25381;-49
2023/07/08 01:01:06;;;;;;;2.70;2.50;;;;;;;24.91;62.90;100982.94;107226;1255;22639;-48
2023/07/08 01:03:43;;;;;;;2.70;2.10;;;;;;;24.88;62.51;100983.33;107156;1269;25417;-48
2023/07/08 01:06:11;;;;;;;2.50;2.30;;;;;;;24.87;62.80;100986.80;107225;1262;25365;-48
2023/07/08 01:08:38;;;;;;;2.40;2.30;;;;;;;24.87;63.03;100987.67;107154;1263;25372;-49
2023/07/08 01:11:05;;;;;;;2.80;2.60;;;;;;;24.87;63.36;100986.31;107101;1253;25324;-48
2023/07/08 01:13:37;;;;;;;6.50;2.50;;;;;;;24.85;63.69;100985.15;107264;1263;25372;-49
2023/07/08 01:16:04;;;;;;;;;;;;;;;24.86;63.75;100986.89;107318;1262;25356;-49
2023/07/08 01:18:31;;;;;;;2.60;2.40;;;;;;;24.85;63.81;100985.69;106863;1269;25488;-48
2023/07/08 01:21:06;;;;;;;2.70;2.50;;;;;;;24.84;64.00;100986.70;106807;1267;25406;-49
2023/07/08 01:23:35;;;;;;;3.30;2.60;;;;;;;24.82;64.08;100985.39;106587;1270;22730;-49
2023/07/08 01:26:02;;;;;;;3.00;2.30;;;;;;;24.81;63.72;100986.44;106760;1270;25341;-49
2023/07/08 01:28:30;;;;;;;2.80;2.60;;;;;;;24.79;63.93;100990.98;106793;1269;25479;-49
2023/07/08 01:30:57;;;;;;;3.00;2.50;;;;;;;24.77;63.93;100994.15;106888;1257;25372;-48
2023/07/08 01:33:25;;;;;;;9.10;2.80;;;;;;;24.74;64.02;100990.33;106862;1266;25362;-49
2023/07/08 01:35:52;;;;;;;4.50;2.30;;;;;;;24.71;64.35;100989.27;107040;1266;25366;-49
2023/07/08 01:38:23;;;;;;;4.10;2.60;;;;;;;24.69;64.14;100990.63;106976;1259;25459;-48
2023/07/08 01:40:52;;;;;;;3.40;2.80;;;;;;;24.69;64.04;100987.33;106917;1263;22763;-47
2023/07/08 01:43:19;;;;;;;4.00;2.60;;;;;;;24.68;63.96;100985.98;106947;1264;22560;-49
2023/07/08 01:45:46;;;;;;;2.40;2.20;;;;;;;24.65;63.86;100981.91;106978;1257;25394;-48
2023/07/08 01:48:15;;;;;;;2.00;1.80;;;;;;;24.63;63.98;100981.73;106810;1267;25328;-48
2023/07/08 01:50:55;;;;;;;2.60;2.40;;;;;;;24.61;63.96;100976.05;107140;1264;22519;-49
2023/07/08 01:53:37;;;;;;;2.40;2.20;;;;;;;24.58;64.02;100973.79;107301;1260;24335;-48
2023/07/08 01:56:05;;;;;;;2.20;2.00;;;;;;;24.57;64.22;100973.54;107048;1267;25573;-48
2023/07/08 01:58:32;;;;;;;3.00;2.50;;;;;;;24.55;64.51;100969.92;107395;1254;25316;-48
2023/07/08 02:01:00;;;;;;;3.10;2.30;;;;;;;24.55;64.70;100971.38;107350;1261;25338;-49
2023/07/08 02:03:28;;;;;;;2.00;1.90;;;;;;;24.54;64.55;100968.98;107308;1269;22577;-49
2023/07/08 02:05:55;;;;;;;4.80;2.50;;;;;;;24.52;64.66;100965.52;107234;1253;25325;-49
2023/07/08 02:08:22;;;;;;;2.80;2.20;;;;;;;24.52;64.77;100965.40;106874;1265;25341;-50
2023/07/08 02:10:54;;;;;;;2.40;2.10;;;;;;;24.51;64.62;100959.81;106943;1256;25372;-50
2023/07/08 02:13:21;;;;;;;3.50;2.40;;;;;;;24.49;64.56;100962.80;107210;1256;25402;-49
2023/07/08 02:15:49;;;;;;;2.50;2.10;;;;;;;24.47;64.51;100961.14;107268;1254;25375;-50
2023/07/08 02:18:18;;;;;;;2.50;2.30;;;;;;;24.45;64.67;100963.09;107067;1260;25481;-49
2023/07/08 02:20:46;;;;;;;2.90;2.00;;;;;;;24.45;64.73;100967.39;107052;1250;22518;-49
2023/07/08 02:23:14;;;;;;;3.20;1.90;;;;;;;24.45;64.86;100963.42;107132;1254;25423;-49
2023/07/08 02:25:42;;;;;;;2.20;1.90;;;;;;;24.46;65.08;100965.84;107044;1251;25411;-48
2023/07/08 02:28:12;;;;;;;3.50;2.00;;;;;;;24.47;65.25;100970.77;107008;1263;25359;-50
2023/07/08 02:30:40;;;;;;;2.20;1.90;;;;;;;24.46;65.28;100971.54;106932;1263;25362;-49
2023/07/08 02:33:09;;;;;;;2.70;1.80;;;;;;;24.46;65.32;100968.30;107311;1261;25369;-50
2023/07/08 02:35:37;;;;;;;2.60;1.70;;;;;;;24.46;65.28;100968.33;107172;1256;25315;-50
2023/07/08 02:38:05;;;;;;;2.20;1.80;;;;;;;24.45;65.14;100964.35;107102;1265;22527;-49
2023/07/08 02:40:32;;;;;;;2.20;1.80;;;;;;;24.45;65.33;100967.34;107121;1263;25376;-50
2023/07/08 02:42:59;;;;;;;3.00;2.00;;;;;;;24.45;65.30;100967.13;107257;1262;25306;-49
2023/07/08 02:45:26;;;;;;;3.50;1.80;;;;;;;24.45;65.27;100963.81;107206;1263;25376;-49
2023/07/08 02:47:53;;;;;;;2.30;1.60;;;;;;;24.44;65.19;100962.42;107218;1257;25411;-50
2023/07/08 02:50:20;;;;;;;1.50;1.40;;;;;;;24.44;64.90;100964.58;107122;1257;25393;-49
2023/07/08 02:52:47;;;;;;;1.70;1.40;;;;;;;24.44;64.90;100960.36;107227;1257;25362;-50
2023/07/08 02:55:14;;;;;;;2.40;1.50;;;;;;;24.44;64.88;100959.10;107078;1253;25523;-49
2023/07/08 02:57:41;;;;;;;2.50;2.10;;;;;;;24.44;64.77;100963.36;107126;1266;25359;-48
2023/07/08 03:00:09;;;;;;;2.10;1.80;;;;;;;24.44;65.02;100962.79;107077;1265;25497;-50
2023/07/08 03:02:36;;;;;;;2.10;1.70;;;;;;;24.45;64.77;100958.66;107252;1254;25362;-49
2023/07/08 03:05:05;;;;;;;1.70;1.60;;;;;;;24.44;64.69;100960.30;107231;1261;25379;-49
2023/07/08 03:07:32;;;;;;;2.60;1.60;;;;;;;24.44;64.58;100962.63;107238;1250;25372;-50
2023/07/08 03:09:59;;;;;;;1.80;1.40;;;;;;;24.44;64.73;100960.70;107177;1263;25493;-51
2023/07/08 03:12:26;;;;;;;1.80;1.60;;;;;;;24.45;64.80;100961.17;107117;1266;25362;-49
2023/07/08 03:14:53;;;;;;;2.60;1.70;;;;;;;24.44;64.86;100964.59;107154;1259;25493;-50
2023/07/08 03:17:21;;;;;;;1.90;1.70;;;;;;;24.45;65.10;100968.73;107146;1266;24241;-48
2023/07/08 03:19:50;;;;;;;1.70;1.50;;;;;;;24.47;64.89;100964.35;107346;1263;25402;-49
2023/07/08 03:22:17;;;;;;;1.80;1.70;;;;;;;24.47;64.63;100959.54;106820;1266;25362;-49
2023/07/08 03:24:47;;;;;;;4.40;1.70;;;;;;;24.48;64.78;100958.65;107145;1260;25557;-50
2023/07/08 03:27:17;;;;;;;2.40;1.80;;;;;;;24.49;64.75;100950.36;107222;1259;25223;-50
2023/07/08 03:29:44;;;;;;;1.50;1.40;;;;;;;24.51;64.92;100946.15;107265;1250;22520;-49
2023/07/08 03:32:11;;;;;;;1.90;1.70;;;;;;;24.53;64.98;100941.05;107201;1263;25350;-48
2023/07/08 03:34:41;;;;;;;2.00;1.60;;;;;;;24.53;64.95;100940.61;107152;1254;25497;-49
2023/07/08 03:37:08;;;;;;;3.50;1.70;;;;;;;24.52;65.11;100941.08;107238;1257;25321;-51
2023/07/08 03:39:36;;;;;;;1.70;1.60;;;;;;;24.52;64.94;100939.15;107225;1262;25235;-49
2023/07/08 03:42:03;;;;;;;3.70;1.60;;;;;;;24.52;64.88;100940.73;107102;1263;25344;-51
2023/07/08 03:44:31;;;;;;;4.00;1.60;;;;;;;24.53;64.72;100931.04;107307;1260;25343;-50
2023/07/08 03:46:59;;;;;;;4.60;1.80;;;;;;;24.58;64.72;100929.94;107182;1260;25284;-49
2023/07/08 03:49:26;;;;;;;1.50;1.40;;;;;;;24.65;64.94;100928.54;107324;1266;25414;-49
2023/07/08 03:51:54;;;;;;;1.50;1.30;;;;;;;24.68;64.81;100923.81;106835;1266;25356;-49
2023/07/08 03:54:23;;;;;;;4.40;1.60;;;;;;;24.73;64.77;100922.41;107043;1273;25516;-49
2023/07/08 03:56:51;;;;;;;1.60;1.50;;;;;;;24.76;64.82;100921.47;107144;1266;22528;-49
2023/07/08 03:59:18;;;;;;;2.10;1.50;;;;;;;24.78;64.27;100918.15;106880;1266;25404;-49
2023/07/08 04:01:46;;;;;;;2.10;1.60;;;;;;;24.79;64.35;100921.27;107209;1261;25412;-49
2023/07/08 04:04:15;;;;;;;3.80;1.90;;;;;;;24.80;64.42;100920.79;107075;1266;25358;-51
2023/07/08 04:06:43;;;;;;;2.00;1.70;;;;;;;24.81;64.44;100920.77;107184;1261;22665;-50
2023/07/08 04:09:12;;;;;;;5.10;2.30;;;;;;;24.80;64.48;100929.14;107217;1262;22535;-50
2023/07/08 04:11:40;;;;;;;2.70;1.90;;;;;;;24.80;64.55;100929.88;107260;1260;25493;-49
2023/07/08 04:14:09;;;;;;;2.40;1.90;;;;;;;24.79;64.32;100934.77;107290;1267;22754;-50
2023/07/08 04:16:54;;;;;;;3.30;2.00;;;;;;;24.76;64.47;100935.88;107006;1266;25325;-50
2023/07/08 04:19:23;;;;;;;3.00;1.90;;;;;;;24.73;64.66;100933.25;107201;1263;25255;-50
2023/07/08 04:21:50;;;;;;;2.40;1.50;;;;;;;24.70;64.80;100932.95;107396;1263;25417;-50
2023/07/08 04:24:17;;;;;;;3.30;2.10;;;;;;;24.68;64.98;100932.52;107231;1267;25374;-50
2023/07/08 04:26:46;;;;;;;2.80;2.00;;;;;;;24.69;64.86;100932.48;107130;1266;25369;-51
2023/07/08 04:29:15;;;;;;;2.30;1.80;;;;;;;24.69;64.72;100932.12;107247;1263;22554;-49
2023/07/08 04:31:42;;;;;;;2.10;2.00;;;;;;;24.71;64.88;100934.81;107251;1263;25290;-49
2023/07/08 04:34:09;;;;;;;1.80;1.70;;;;;;;24.71;64.93;100935.14;107266;1254;25341;-50
2023/07/08 04:36:37;;;;;;;3.60;2.00;;;;;;;24.70;64.96;100932.02;107394;1258;25359;-49
2023/07/08 04:39:05;;;;;;;2.40;2.10;;;;;;;24.70;65.01;100929.59;107233;1263;25564;-50
2023/07/08 04:41:32;;;;;;;2.30;1.80;;;;;;;24.69;65.26;100928.00;107220;1267;25331;-48
2023/07/08 04:44:02;;;;;;;2.20;1.90;;;;;;;24.72;65.59;100928.86;107225;1261;25497;-49
2023/07/08 04:46:34;;;;;;;3.40;2.30;;;;;;;24.74;65.74;100924.81;107294;1263;25526;-50
2023/07/08 04:49:02;;;;;;;2.50;2.30;;;;;;;24.77;65.65;100928.48;107225;1260;25388;-50
2023/07/08 04:51:30;;;;;;;3.00;2.30;;;;;;;24.79;65.46;100933.86;107294;1253;25324;-49
2023/07/08 04:53:57;;;;;;;3.80;2.80;;;;;;;24.80;65.42;100938.91;107238;1251;23172;-50
2023/07/08 04:56:41;;;;;;;5.00;2.60;;;;;;;24.82;65.41;100937.88;107131;1260;25417;-49
2023/07/08 04:59:10;;;;;;;3.00;2.40;;;;;;;24.86;65.29;100937.02;107277;1263;25372;-49
2023/07/08 05:01:37;;;;;;;2.90;2.30;;;;;;;24.87;65.03;100935.67;106976;1255;22513;-51
2023/07/08 05:04:07;;;;;;;2.70;2.30;;;;;;;24.90;65.11;100934.55;107071;1263;25335;-50
2023/07/08 05:06:34;;;;;;;3.50;2.40;;;;;;;24.96;65.23;100932.30;107032;1261;25411;-50
2023/07/08 05:09:04;;;;;;;2.80;2.60;;;;;;;25.04;65.15;100933.41;107017;1260;25375;-51
2023/07/08 05:11:31;;;;;;;2.90;2.40;;;;;;;25.13;64.61;100934.52;106829;1261;25472;-49
2023/07/08 05:14:01;;;;;;;3.00;2.70;;;;;;;25.19;64.43;100935.60;107076;1263;25415;-49
2023/07/08 05:16:29;;;;;;;3.50;2.70;;;;;;;25.28;64.30;100930.48;106814;1267;25490;-49
2023/07/08 05:18:56;;;;;;;4.00;2.60;;;;;;;25.39;63.93;100933.52;107017;1266;25334;-49
2023/07/08 05:21:24;;;;;;;2.70;2.50;;;;;;;25.48;63.73;100935.05;107317;1254;25420;-51
2023/07/08 05:23:51;;;;;;;3.30;2.80;;;;;;;25.58;63.36;100927.09;106946;1267;25427;-50
2023/07/08 05:26:18;;;;;;;2.80;2.50;;;;;;;25.73;63.09;100928.20;107317;1261;22533;-50
2023/07/08 05:28:45;;;;;;;3.60;3.30;;;;;;;25.88;62.36;100924.67;107234;1263;25379;-50
2023/07/08 05:31:12;;;;;;;3.70;2.90;;;;;;;25.97;61.91;100923.20;107175;1263;25353;-50
2023/07/08 05:33:39;;;;;;;2.90;2.60;;;;;;;26.02;61.70;100924.20;107107;1267;25331;-49
2023/07/08 05:36:07;;;;;;;5.30;2.90;;;;;;;26.05;61.49;100925.42;107217;1253;24340;-50
2023/07/08 05:38:34;;;;;;;3.10;2.80;;;;;;;26.03;61.23;100922.82;107272;1263;25341;-49
2023/07/08 05:41:01;;;;;;;3.10;2.80;;;;;;;26.01;61.18;100923.73;107365;1264;25418;-48
2023/07/08 05:43:29;;;;;;;2.90;2.70;;;;;;;25.96;61.65;100929.70;107306;1264;25466;-50
2023/07/08 05:46:01;;;;;;;3.40;3.10;;;;;;;25.91;61.44;100931.38;107267;1266;25529;-50
2023/07/08 05:48:39;;;;;;;4.00;3.30;;;;;;;25.81;61.61;100936.42;107239;1263;22523;-51
2023/07/08 05:51:06;;;;;;;2.90;2.70;;;;;;;25.77;62.09;100939.80;107227;1257;25421;-50
2023/07/08 05:53:33;;;;;;;3.60;3.00;;;;;;;25.75;61.88;100939.91;107353;1254;25335;-50
2023/07/08 05:56:02;;;;;;;2.80;2.50;;;;;;;25.77;62.11;100939.05;107178;1258;25446;-49
2023/07/08 05:58:29;;;;;;;3.90;2.80;;;;;;;25.77;61.90;100935.67;107274;1263;24208;-49
2023/07/08 06:00:57;;;;;;;3.60;3.10;;;;;;;25.77;61.71;100938.16;107076;1260;25334;-50
2023/07/08 06:03:24;;;;;;;5.40;3.10;;;;;;;25.78;61.70;100939.70;107352;1262;25185;-50
2023/07/08 06:05:51;;;;;;;3.80;2.90;;;;;;;25.81;62.02;100940.67;107294;1267;25494;-49
2023/07/08 06:08:19;;;;;;;3.10;2.80;;;;;;;25.88;61.73;100942.83;107341;1254;25385;-51
2023/07/08 06:10:48;;;;;;;3.50;2.50;;;;;;;25.90;61.17;100947.27;106853;1268;25394;-51
2023/07/08 06:13:15;;;;;;;3.10;2.70;;;;;;;25.96;61.39;100947.13;107155;1263;25418;-50
2023/07/08 06:15:42;;;;;;;3.30;2.90;;;;;;;26.03;61.40;100948.84;107016;1257;25337;-51
2023/07/08 06:18:09;;;;;;;3.00;2.80;;;;;;;26.13;61.06;100956.04;107011;1251;25345;-50
2023/07/08 06:20:38;;;;;;;3.80;2.70;;;;;;;26.21;60.04;100949.86;107225;1263;25344;-50
2023/07/08 06:23:05;;;;;;;4.00;2.90;;;;;;;26.06;60.21;100957.13;107155;1264;25408;-50
2023/07/08 06:25:33;;;;;;;3.20;2.80;;;;;;;25.96;60.82;100954.88;107072;1266;25371;-51
2023/07/08 06:27:59;;;;;;;4.60;3.20;;;;;;;25.94;60.29;100952.81;107202;1263;25424;-50
2023/07/08 06:30:27;;;;;;;3.40;2.90;;;;;;;25.84;60.21;100956.05;107224;1266;25341;-50
2023/07/08 06:32:54;;;;;;;3.40;3.10;;;;;;;25.79;60.39;100961.46;107277;1266;25494;-49
2023/07/08 06:35:22;;;;;;;3.60;3.30;;;;;;;25.73;60.54;100959.27;107264;1264;25369;-50
2023/07/08 06:37:49;;;;;;;3.40;3.10;;;;;;;25.68;60.96;100958.31;107132;1266;25368;-49
2023/07/08 06:40:18;;;;;;;3.50;3.20;;;;;;;25.63;61.07;100959.20;107204;1262;25325;-50
2023/07/08 06:42:46;;;;;;;4.10;3.60;;;;;;;25.58;60.95;100958.55;107176;1261;22700;-49
2023/07/08 06:45:22;;;;;;;3.80;3.40;;;;;;;25.69;60.81;100957.14;107127;1257;25379;-50
2023/07/08 06:47:49;;;;;;;3.50;3.30;;;;;;;25.84;60.66;100949.70;107158;1264;25362;-48
2023/07/08 06:50:16;;;;;;;3.70;3.30;;;;;;;25.89;60.47;100950.17;107120;1254;25461;-50
2023/07/08 06:52:43;;;;;;;3.90;3.50;;;;;;;25.82;60.66;100943.77;107046;1266;25455;-50
2023/07/08 06:55:10;;;;;;;4.00;3.50;;;;;;;25.87;60.62;100944.98;106927;1267;25334;-49
2023/07/08 06:57:38;;;;;;;4.70;3.80;;;;;;;26.00;60.18;100944.52;107100;1269;25401;-50
2023/07/08 07:00:10;;;;;;;3.80;3.50;;;;;;;26.04;60.04;100937.89;107092;1261;25356;-50
2023/07/08 07:02:38;;;;;;;4.00;3.60;;;;;;;26.07;59.78;100938.20;107303;1263;22519;-50
2023/07/08 07:05:05;;;;;;;3.40;3.20;;;;;;;26.10;59.73;100933.70;107298;1262;25334;-50
2023/07/08 07:07:34;;;;;;;4.90;3.50;;;;;;;26.15;59.71;100932.15;107029;1267;25347;-50
2023/07/08 07:10:02;;;;;;;3.60;3.30;;;;;;;26.21;59.37;100937.90;107158;1257;25420;-49
2023/07/08 07:12:30;;;;;;;3.20;3.00;;;;;;;26.26;59.48;100936.20;107122;1263;22624;-49
2023/07/08 07:14:57;;;;;;;3.90;3.50;;;;;;;26.34;59.48;100933.73;107191;1267;24363;-50
2023/07/08 07:17:25;;;;;;;3.60;3.30;;;;;;;26.44;59.39;100936.14;107031;1269;25344;-50
2023/07/08 07:19:53;;;;;;;4.80;3.50;;;;;;;26.50;58.95;100935.98;106592;1273;25494;-50
2023/07/08 07:22:21;;;;;;;4.10;3.70;;;;;;;26.55;58.56;100932.45;107167;1263;24203;-49
2023/07/08 07:24:49;;;;;;;3.90;3.60;;;;;;;26.61;58.49;100931.27;107048;1259;25372;-50
2023/07/08 07:27:15;;;;;;;4.90;3.90;;;;;;;26.66;58.40;100931.52;107198;1253;25297;-50
2023/07/08 07:29:49;;;;;;;3.40;3.10;;;;;;;26.64;58.29;100929.21;107270;1272;25336;-51
2023/07/08 07:32:17;;;;;;;4.00;3.50;;;;;;;26.73;57.86;100930.75;107179;1263;25331;-49
2023/07/08 07:34:48;;;;;;;3.70;3.40;;;;;;;26.78;57.96;100924.10;106955;1264;25412;-50
2023/07/08 07:37:16;;;;;;;3.50;3.20;;;;;;;26.83;57.86;100927.61;107173;1266;25493;-50
2023/07/08 07:39:43;;;;;;;3.70;3.30;;;;;;;26.90;57.76;100923.58;107002;1256;25375;-50
2023/07/08 07:42:11;;;;;;;5.30;3.20;;;;;;;26.95;57.68;100928.98;106754;1270;25347;-49
2023/07/08 07:44:39;;;;;;;3.70;3.30;;;;;;;26.98;57.56;100924.45;106994;1263;25456;-49
2023/07/08 07:47:08;;;;;;;4.10;3.80;;;;;;;27.00;57.46;100924.64;106681;1273;22542;-49
2023/07/08 07:49:36;;;;;;;4.00;3.60;;;;;;;27.00;57.63;100918.45;106671;1257;24200;-50
2023/07/08 07:52:04;;;;;;;6.30;3.80;;;;;;;27.05;57.84;100922.23;107005;1263;25397;-50
2023/07/08 07:54:31;;;;;;;5.00;3.90;;;;;;;27.07;57.76;100923.13;106891;1263;25533;-49
2023/07/08 07:56:58;;;;;;;3.70;3.40;;;;;;;27.03;57.31;100918.65;107142;1264;25376;-51
2023/07/08 07:59:25;;;;;;;4.30;3.90;;;;;;;27.00;57.68;100920.02;107244;1257;25362;-50
2023/07/08 08:01:52;;;;;;;4.10;3.80;;;;;;;26.99;57.53;100912.85;107098;1265;23316;-51
2023/07/08 08:04:19;;;;;;;4.30;3.90;;;;;;;26.96;57.54;100912.78;107041;1269;25462;-49
2023/07/08 08:06:47;;;;;;;4.60;3.60;;;;;;;26.90;57.41;100913.82;107153;1256;22566;-49
2023/07/08 08:09:15;;;;;;;4.50;4.10;;;;;;;26.84;57.71;100916.12;107175;1264;24377;-49
2023/07/08 08:11:42;;;;;;;4.80;3.80;;;;;;;26.77;58.00;100918.14;107184;1266;25335;-51
2023/07/08 08:14:09;;;;;;;3.60;3.30;;;;;;;26.70;58.13;100917.70;107162;1261;25876;-50
2023/07/08 08:16:39;;;;;;;4.60;3.50;;;;;;;26.68;58.27;100914.13;106972;1251;24204;-49
2023/07/08 08:19:06;;;;;;;4.10;3.80;;;;;;;26.67;58.40;100905.98;107107;1264;24157;-50
2023/07/08 08:21:35;;;;;;;3.60;3.30;;;;;;;26.67;58.79;100912.73;107028;1263;24360;-50
2023/07/08 08:24:03;;;;;;;3.90;3.60;;;;;;;26.66;58.88;100912.84;106836;1266;25423;-51
2023/07/08 08:26:30;;;;;;;4.60;3.60;;;;;;;26.68;59.39;100911.42;106935;1263;22524;-49
2023/07/08 08:28:57;;;;;;;3.80;3.50;;;;;;;26.71;59.30;100910.44;106970;1267;25337;-50
2023/07/08 08:31:24;;;;;;;4.60;4.10;;;;;;;26.74;59.29;100909.65;106934;1262;25576;-50
2023/07/08 08:33:52;;;;;;;4.50;4.10;;;;;;;26.78;59.26;100907.16;107566;1255;23549;-49
2023/07/08 08:36:20;;;;;;;4.40;3.90;;;;;;;26.77;59.21;100906.39;107424;1255;22512;-49
2023/07/08 08:38:47;;;;;;;4.80;4.00;;;;;;;26.76;59.42;100908.27;107874;1252;25359;-50
2023/07/08 08:41:19;;;;;;;4.20;3.80;;;;;;;26.76;59.31;100901.66;107160;1263;22491;-49
2023/07/08 08:43:47;;;;;;;4.40;3.90;;;;;;;26.75;59.22;100901.40;107568;1260;22396;-50
2023/07/08 08:46:26;;;;;;;4.50;4.10;;;;;;;26.76;59.59;100898.27;107113;1264;25325;-49
2023/07/08 08:49:11;;;;;;;4.90;4.40;;;;;;;26.82;59.70;100905.45;106859;1261;25395;-50
2023/07/08 08:51:38;;;;;;;5.10;4.60;;;;;;;26.86;59.87;100902.20;107683;1257;25424;-50
2023/07/08 08:54:06;;;;;;;4.60;4.20;;;;;;;26.90;59.95;100905.05;107317;1260;22538;-50
2023/07/08 08:56:43;;;;;;;5.00;4.30;;;;;;;26.93;59.79;100905.88;107595;1251;25339;-50
2023/07/08 08:59:13;;;;;;;4.50;4.20;;;;;;;26.95;60.17;100908.22;107597;1254;25424;-47
2023/07/08 09:01:41;;;;;;;5.50;5.00;;;;;;;27.02;60.09;100910.42;107599;1254;22683;-49
2023/07/08 09:04:40;;;;;;;6.90;4.60;;;;;;;27.12;60.19;100904.85;107758;1251;22552;-50
2023/07/08 09:07:18;;;;;;;5.30;4.60;;;;;;;27.26;59.79;100904.65;106991;1265;25406;-50
2023/07/08 09:10:26;;;;;;;6.00;4.20;;;;;;;27.33;58.99;100900.54;106408;1273;24225;-49
2023/07/08 09:12:53;;;;;;;4.20;3.90;;;;;;;27.35;58.62;100903.67;106938;1263;23229;-49
2023/07/08 09:15:21;;;;;;;5.40;4.10;;;;;;;27.33;58.28;100899.24;106864;1277;25463;-50
2023/07/08 09:17:49;;;;;;;5.50;5.00;;;;;;;27.32;58.75;100909.28;106210;1278;24257;-50
2023/07/08 09:20:27;;;;;;;5.40;4.60;;;;;;;27.34;58.63;100904.52;106415;1273;22565;-50
2023/07/08 09:22:54;;;;;;;5.20;4.80;;;;;;;27.40;58.89;100911.14;106779;1276;23317;-49
2023/07/08 09:25:42;;;;;;;5.30;4.90;;;;;;;27.43;58.39;100913.59;106856;1269;23302;-49
2023/07/08 09:28:09;;;;;;;5.80;5.30;;;;;;;27.36;58.52;100914.34;107132;1269;22543;-49
2023/07/08 09:30:36;;;;;;;6.10;5.50;;;;;;;27.30;59.27;100918.23;106254;1275;22556;-49
2023/07/08 09:33:04;;;;;;;6.50;4.90;;;;;;;27.25;59.58;100918.16;106140;1276;25446;-50
2023/07/08 09:35:40;;;;;;;5.80;5.30;;;;;;;27.26;59.66;100914.52;106178;1267;25469;-49
2023/07/08 09:38:09;;;;;;;6.50;5.90;;;;;;;27.26;59.86;100914.98;105873;1286;24922;-50
2023/07/08 09:40:36;;;;;;;6.80;6.30;;;;;;;27.29;60.26;100909.80;105912;1279;23845;-50
2023/07/08 09:43:15;;;;;;;6.20;5.60;;;;;;;27.35;60.21;100911.19;106376;1267;25506;-50
2023/07/08 09:45:45;;;;;;;6.70;6.00;;;;;;;27.43;59.64;100909.08;106528;1267;25337;-51
2023/07/08 09:48:15;;;;;;;7.10;5.90;;;;;;;27.48;59.52;100909.18;106876;1270;24282;-50
2023/07/08 09:50:43;;;;;;;6.40;5.70;;;;;;;27.55;59.00;100906.95;107182;1251;25359;-50
2023/07/08 09:53:11;;;;;;;5.60;5.20;;;;;;;27.59;58.77;100909.93;107392;1260;25338;-50
2023/07/08 09:55:39;;;;;;;6.30;5.80;;;;;;;27.64;58.52;100907.02;107305;1251;24227;-50
2023/07/08 09:58:06;;;;;;;5.70;5.20;;;;;;;27.68;58.26;100900.55;107306;1253;22636;-50
2023/07/08 10:00:38;;;;;;;6.10;5.60;;;;;;;27.70;57.97;100901.52;106909;1267;22643;-50
2023/07/08 10:03:12;;;;;;;6.40;5.80;;;;;;;27.71;58.07;100901.73;107122;1263;25328;-49
2023/07/08 10:05:42;;;;;;;5.60;5.10;;;;;;;27.73;57.98;100904.98;107156;1263;24474;-50
2023/07/08 10:08:15;;;;;;;5.70;5.10;;;;;;;27.75;58.10;100902.76;106898;1266;22530;-50
2023/07/08 10:10:43;;;;;;;5.70;5.20;;;;;;;27.79;57.81;100900.98;107301;1256;22540;-50
2023/07/08 10:13:20;;;;;;;6.20;5.40;;;;;;;27.82;58.05;100909.04;107178;1254;25497;-50
2023/07/08 10:16:01;;;;;;;8.20;6.70;;;;;;;27.84;57.87;100914.63;107051;1257;25484;-50
2023/07/08 10:18:29;;;;;;;7.80;6.50;;;;;;;27.81;57.92;100912.95;107148;1254;25382;-50
2023/07/08 10:21:23;;;;;;;6.90;6.20;;;;;;;27.77;58.15;100912.95;107079;1264;22537;-49
2023/07/08 10:23:51;;;;;;;7.80;7.00;;;;;;;27.77;57.95;100916.35;107242;1256;25421;-50
2023/07/08 10:26:26;;;;;;;7.20;6.70;;;;;;;27.78;57.98;100918.35;107389;1254;22531;-50
2023/07/08 10:29:11;;;;;;;7.50;6.90;;;;;;;27.76;57.99;100914.77;107861;1251;25402;-51
2023/07/08 10:31:46;;;;;;;7.70;7.00;;;;;;;27.69;58.09;100921.50;106980;1270;25535;-49
2023/07/08 10:34:29;;;;;;;9.70;6.70;;;;;;;27.60;57.95;100920.55;107367;1264;25363;-51
2023/07/08 10:37:03;;;;;;;7.90;7.20;;;;;;;27.48;58.23;100921.98;107374;1254;22562;-49
2023/07/08 10:40:21;;;;;;;8.00;7.40;;;;;;;27.35;58.44;100918.85;107286;1253;22614;-49
2023/07/08 10:43:23;;;;;;;8.30;7.60;;;;;;;27.21;59.06;100915.83;106895;1273;25428;-48
2023/07/08 10:46:06;;;;;;;8.80;8.00;;;;;;;27.10;59.33;100916.95;106290;1267;25432;-48
2023/07/08 10:48:52;;;;;;;9.00;8.20;;;;;;;27.03;59.46;100919.73;106508;1272;25394;-49
2023/07/08 10:51:34;;;;;;;9.70;8.80;;;;;;;26.98;59.85;100921.23;106397;1273;22579;-49
2023/07/08 10:54:13;;;;;;;10.80;8.80;;;;;;;26.96;60.19;100915.75;106271;1267;25381;-48
2023/07/08 10:56:54;;;;;;;9.20;8.40;;;;;;;26.96;60.17;100917.18;106456;1270;25396;-49
2023/07/08 10:59:24;;;;;;;10.70;9.90;;;;;;;26.97;60.25;100921.55;106386;1267;25393;-50
2023/07/08 11:02:02;;;;;;;10.60;9.70;;;;;;;27.00;60.91;100920.75;106451;1275;25374;-49
2023/07/08 11:05:19;;;;;;;10.70;9.70;;;;;;;27.03;60.69;100919.00;106279;1266;25353;-49
2023/07/08 11:08:34;;;;;;;10.30;9.40;;;;;;;27.04;60.80;100915.17;105170;1291;25398;-50
2023/07/08 11:11:06;;;;;;;9.50;8.70;;;;;;;27.06;60.83;100916.67;104797;1283;25475;-50
2023/07/08 11:13:53;;;;;;;9.90;9.10;;;;;;;27.07;60.72;100913.89;104799;1285;23443;-49
2023/07/08 11:16:29;;;;;;;9.70;8.70;;;;;;;27.06;60.30;100909.30;104490;1296;25274;-50
2023/07/08 11:19:32;;;;;;;9.00;8.40;;;;;;;27.07;60.30;100912.09;104873;1287;25275;-51
2023/07/08 11:22:00;;;;;;;10.20;8.70;;;;;;;27.09;59.85;100908.73;104978;1291;25445;-49
2023/07/08 11:24:36;;;;;;;10.30;9.50;;;;;;;27.12;60.11;100906.52;105264;1290;25367;-50
2023/07/08 11:27:21;;;;;;;11.80;9.40;;;;;;;27.16;60.29;100904.89;105248;1276;23455;-50
2023/07/08 11:30:05;;;;;;;11.40;8.30;;;;;;;27.23;60.07;100910.27;105189;1292;25438;-50
2023/07/08 11:32:32;;;;;;;9.40;8.70;;;;;;;27.31;59.55;100907.02;105585;1280;22611;-50